createdAt,value
2023-05-05T00:01:02.366Z,7.03
2023-05-05T00:03:30.112Z,7.90
2023-05-05T00:05:58.077Z,8.75
2023-05-05T00:08:25.696Z,15.43
2023-05-05T00:10:53.558Z,6.72
2023-05-05T00:13:22.327Z,7.60
2023-05-05T00:15:51.920Z,7.82
2023-05-05T00:18:20.641Z,9.02
2023-05-05T00:20:48.975Z,6.38
2023-05-05T00:23:17.001Z,5.22
2023-05-05T00:25:44.505Z,6.57
2023-05-05T00:28:14.028Z,9.32
2023-05-05T00:30:41.773Z,6.18
2023-05-05T00:33:11.333Z,5.68
2023-05-05T00:35:38.868Z,7.38
2023-05-05T00:38:07.071Z,5.07
2023-05-05T00:40:34.615Z,8.52
2023-05-05T00:43:02.679Z,9.60
2023-05-05T00:45:30.988Z,10.13
2023-05-05T00:48:00.629Z,9.48
2023-05-05T00:50:30.782Z,8.00
2023-05-05T00:53:05.864Z,6.53
2023-05-05T00:55:35.605Z,9.18
2023-05-05T00:58:04.232Z,5.75
2023-05-05T01:00:31.973Z,8.50
2023-05-05T01:02:59.994Z,8.68
2023-05-05T01:05:37.286Z,10.05
2023-05-05T01:08:25.263Z,6.57
2023-05-05T01:11:03.133Z,7.50
2023-05-05T01:13:49.184Z,8.02
2023-05-05T01:16:24.976Z,7.97
2023-05-05T01:19:37.345Z,6.53
2023-05-05T01:22:09.006Z,8.70
2023-05-05T01:24:45.010Z,6.65
2023-05-05T01:27:45.330Z,12.23
2023-05-05T01:30:31.754Z,8.55
2023-05-05T01:33:08.406Z,9.35
2023-05-05T01:35:47.389Z,8.35
2023-05-05T01:38:21.750Z,10.75
2023-05-05T01:41:11.481Z,9.02
2023-05-05T01:43:41.203Z,11.40
2023-05-05T01:46:09.419Z,9.02
2023-05-05T01:48:38.908Z,15.00
2023-05-05T01:51:10.020Z,8.48
2023-05-05T01:53:39.673Z,14.25
2023-05-05T01:56:09.610Z,11.35
2023-05-05T01:58:38.477Z,9.23
2023-05-05T02:01:06.534Z,13.93
2023-05-05T02:03:37.585Z,9.35
2023-05-05T02:06:07.708Z,8.83
2023-05-05T02:08:37.690Z,9.60
2023-05-05T02:11:06.923Z,11.57
2023-05-05T02:13:36.572Z,8.13
2023-05-05T02:16:06.226Z,9.07
2023-05-05T02:18:36.119Z,9.20
2023-05-05T02:21:04.247Z,10.02
2023-05-05T02:23:33.890Z,11.75
2023-05-05T02:26:06.996Z,11.43
2023-05-05T02:28:48.902Z,12.63
2023-05-05T02:31:17.927Z,12.93
2023-05-05T02:33:47.562Z,12.57
2023-05-05T02:36:20.743Z,11.00
2023-05-05T02:39:01.288Z,14.52
2023-05-05T02:41:35.387Z,8.00
2023-05-05T02:44:09.753Z,17.90
2023-05-05T02:46:39.490Z,13.77
2023-05-05T02:49:07.429Z,13.45
2023-05-05T02:51:36.523Z,15.95
2023-05-05T02:54:09.812Z,16.25
2023-05-05T02:56:40.975Z,12.45
2023-05-05T02:59:23.585Z,12.13
2023-05-05T03:02:23.285Z,17.33
2023-05-05T03:04:56.951Z,13.02
2023-05-05T03:07:31.287Z,18.58
2023-05-05T03:10:10.270Z,16.90
2023-05-05T03:12:49.270Z,16.85
2023-05-05T03:15:26.521Z,20.38
2023-05-05T03:17:56.641Z,20.60
2023-05-05T03:20:25.200Z,19.42
2023-05-05T03:22:54.947Z,13.25
2023-05-05T03:25:22.987Z,20.50
2023-05-05T03:27:51.025Z,15.15
2023-05-05T03:30:21.501Z,17.77
2023-05-05T03:32:52.026Z,18.50
2023-05-05T03:35:20.341Z,25.88
2023-05-05T03:37:48.260Z,22.08
2023-05-05T03:40:17.613Z,21.30
2023-05-05T03:42:45.614Z,24.08
2023-05-05T03:45:13.910Z,25.63
2023-05-05T03:47:41.591Z,28.75
2023-05-05T03:50:09.681Z,26.77
2023-05-05T03:52:37.614Z,26.80
2023-05-05T03:55:06.957Z,25.08
2023-05-05T03:57:34.582Z,30.33
2023-05-05T04:00:02.463Z,25.20
2023-05-05T04:02:31.446Z,24.38
2023-05-05T04:04:59.255Z,19.08
2023-05-05T04:07:27.110Z,24.77
2023-05-05T04:09:56.091Z,28.85
2023-05-05T04:12:23.883Z,30.35
2023-05-05T04:14:51.417Z,30.48
2023-05-05T04:17:19.027Z,31.25
2023-05-05T04:19:46.687Z,29.50
2023-05-05T04:22:14.404Z,24.10
2023-05-05T04:24:42.165Z,29.92
2023-05-05T04:27:09.739Z,29.33
2023-05-05T04:29:37.472Z,35.20
2023-05-05T04:32:05.287Z,28.25
2023-05-05T04:34:32.869Z,27.38
2023-05-05T04:37:01.192Z,38.13
2023-05-05T04:39:29.958Z,27.45
2023-05-05T04:41:57.929Z,23.65
2023-05-05T04:44:25.748Z,28.58
2023-05-05T04:46:53.588Z,27.90
2023-05-05T04:49:21.645Z,30.13
2023-05-05T04:51:49.216Z,31.95
2023-05-05T04:54:17.007Z,35.78
2023-05-05T04:56:44.662Z,39.15
2023-05-05T04:59:12.532Z,31.77
2023-05-05T05:01:41.146Z,33.95
2023-05-05T05:04:10.615Z,29.50
2023-05-05T05:06:38.253Z,30.70
2023-05-05T05:09:06.006Z,25.50
2023-05-05T05:11:33.643Z,20.77
2023-05-05T05:14:01.306Z,21.65
2023-05-05T05:16:28.843Z,24.83
2023-05-05T05:18:56.329Z,24.05
2023-05-05T05:21:24.088Z,23.08
2023-05-05T05:23:51.996Z,21.75
2023-05-05T05:26:20.217Z,19.30
2023-05-05T05:28:48.177Z,20.45
2023-05-05T05:31:15.642Z,17.73
2023-05-05T05:33:43.864Z,14.93
2023-05-05T05:36:13.077Z,18.40
2023-05-05T05:38:41.086Z,17.17
2023-05-05T05:41:08.506Z,20.38
2023-05-05T05:43:38.054Z,13.68
2023-05-05T05:46:08.209Z,16.70
2023-05-05T05:48:36.875Z,13.10
2023-05-05T05:51:04.352Z,20.05
2023-05-05T05:53:31.949Z,22.08
2023-05-05T05:56:01.345Z,21.38
2023-05-05T05:58:29.651Z,13.68
2023-05-05T06:00:59.812Z,27.58
2023-05-05T06:08:25.147Z,12.80
2023-05-05T06:10:54.582Z,20.23
2023-05-05T06:13:22.300Z,16.60
2023-05-05T06:15:51.831Z,17.35
2023-05-05T06:18:19.614Z,18.40
2023-05-05T06:20:50.871Z,22.10
2023-05-05T06:23:19.512Z,20.17
2023-05-05T06:25:54.812Z,21.85
2023-05-05T06:28:22.372Z,17.30
2023-05-05T06:30:49.805Z,16.65
2023-05-05T06:33:17.326Z,19.25
2023-05-05T06:35:44.759Z,23.38
2023-05-05T06:38:13.147Z,14.93
2023-05-05T06:40:40.646Z,21.77
2023-05-05T06:43:08.386Z,18.67
2023-05-05T06:45:43.757Z,16.42
2023-05-05T06:48:12.280Z,19.20
2023-05-05T06:50:40.106Z,22.52
2023-05-05T06:53:07.896Z,20.23
2023-05-05T06:55:35.412Z,15.57
2023-05-05T06:58:03.634Z,19.23
2023-05-05T07:00:31.780Z,17.40
2023-05-05T07:02:59.543Z,20.67
2023-05-05T07:05:27.084Z,18.60
2023-05-05T07:07:56.678Z,20.35
2023-05-05T07:10:24.967Z,19.77
2023-05-05T07:12:52.738Z,21.67
2023-05-05T07:15:28.888Z,21.17
2023-05-05T07:17:57.571Z,14.80
2023-05-05T07:20:25.407Z,21.60
2023-05-05T07:22:52.961Z,17.58
2023-05-05T07:25:20.963Z,23.75
2023-05-05T07:27:48.482Z,20.10
2023-05-05T07:30:18.321Z,22.02
2023-05-05T07:32:46.719Z,20.55
2023-05-05T07:35:14.373Z,17.02
2023-05-05T07:37:42.073Z,20.23
2023-05-05T07:40:10.058Z,15.45
2023-05-05T07:42:37.779Z,23.42
2023-05-05T07:45:06.392Z,16.42
2023-05-05T07:47:33.993Z,14.93
2023-05-05T07:50:01.529Z,19.95
2023-05-05T07:52:44.270Z,15.52
2023-05-05T07:55:15.827Z,18.38
2023-05-05T07:57:43.556Z,19.35
2023-05-05T08:00:13.744Z,16.33
2023-05-05T08:02:41.563Z,10.60
2023-05-05T08:05:09.821Z,21.33
2023-05-05T08:07:41.230Z,15.25
2023-05-05T08:10:10.802Z,19.10
2023-05-05T08:12:38.618Z,17.02
2023-05-05T08:15:07.621Z,14.20
2023-05-05T08:17:47.262Z,14.57
2023-05-05T08:20:15.714Z,21.88
2023-05-05T08:22:43.499Z,16.02
2023-05-05T08:25:11.357Z,10.30
2023-05-05T08:27:40.502Z,15.30
2023-05-05T08:30:09.218Z,18.05
2023-05-05T08:32:38.297Z,8.85
2023-05-05T08:35:06.853Z,9.68
2023-05-05T08:37:34.929Z,17.35
2023-05-05T08:40:02.641Z,13.30
2023-05-05T08:42:38.102Z,17.60
2023-05-05T08:45:08.564Z,15.30
2023-05-05T08:47:37.763Z,9.10
2023-05-05T08:50:06.323Z,12.82
2023-05-05T08:52:43.986Z,14.32
2023-05-05T08:55:24.466Z,16.08
2023-05-05T08:57:55.878Z,8.27
2023-05-05T09:00:24.551Z,13.63
2023-05-05T09:02:54.608Z,10.20
2023-05-05T09:05:22.319Z,15.40
2023-05-05T09:07:50.987Z,11.43
2023-05-05T09:10:19.408Z,17.17
2023-05-05T09:12:47.374Z,10.80
2023-05-05T09:15:15.427Z,8.80
2023-05-05T09:17:43.934Z,14.93
2023-05-05T09:20:13.781Z,12.48
2023-05-05T09:22:46.715Z,18.08
2023-05-05T09:25:16.235Z,13.90
2023-05-05T09:27:48.986Z,15.43
2023-05-05T09:30:24.997Z,11.02
2023-05-05T09:32:54.398Z,16.25
2023-05-05T09:35:23.220Z,10.00
2023-05-05T09:37:50.726Z,8.02
2023-05-05T09:40:19.795Z,11.65
2023-05-05T09:42:47.989Z,8.88
2023-05-05T09:45:18.701Z,15.65
2023-05-05T09:47:47.571Z,4.95
2023-05-05T09:50:18.642Z,8.52
2023-05-05T09:53:00.767Z,6.60
2023-05-05T09:55:29.175Z,8.90
2023-05-05T09:57:57.188Z,16.75
2023-05-05T10:00:39.021Z,8.88
2023-05-05T10:03:06.933Z,13.27
2023-05-05T10:05:50.689Z,10.57
2023-05-05T10:08:22.968Z,9.75
2023-05-05T10:10:55.320Z,9.95
2023-05-05T10:13:24.883Z,11.77
2023-05-05T10:15:57.305Z,12.98
2023-05-05T10:18:27.058Z,9.38
2023-05-05T10:20:59.902Z,10.65
2023-05-05T10:23:41.649Z,9.32
2023-05-05T10:26:14.021Z,8.65
2023-05-05T10:28:54.894Z,9.73
2023-05-05T10:31:33.920Z,8.20
2023-05-05T10:34:05.992Z,9.00
2023-05-05T10:36:34.241Z,9.32
2023-05-05T10:39:03.059Z,9.35
2023-05-05T10:41:32.037Z,7.55
2023-05-05T10:44:03.692Z,9.88
2023-05-05T10:46:32.269Z,12.35
2023-05-05T10:49:07.169Z,9.02
2023-05-05T10:51:46.780Z,10.88
2023-05-05T10:54:24.747Z,9.85
2023-05-05T10:56:53.117Z,9.25
2023-05-05T10:59:39.270Z,9.25
2023-05-05T11:02:22.318Z,10.05
2023-05-05T11:05:21.068Z,12.00
2023-05-05T11:07:51.490Z,10.65
2023-05-05T11:10:21.196Z,9.15
2023-05-05T11:12:52.093Z,10.47
2023-05-05T11:15:29.552Z,8.07
2023-05-05T11:17:58.936Z,9.73
2023-05-05T11:20:52.477Z,7.18
2023-05-05T11:23:20.230Z,5.57
2023-05-05T11:25:47.965Z,6.70
2023-05-05T11:28:24.953Z,8.88
2023-05-05T11:30:55.894Z,7.53
2023-05-05T11:33:30.319Z,7.85
2023-05-05T11:36:13.303Z,5.47
2023-05-05T11:39:10.148Z,8.73
2023-05-05T11:41:58.502Z,7.43
2023-05-05T11:44:35.926Z,9.77
2023-05-05T11:47:06.545Z,6.65
2023-05-05T11:49:36.396Z,5.10
2023-05-05T11:52:05.785Z,10.10
2023-05-05T11:54:36.220Z,10.25
2023-05-05T11:57:08.571Z,7.35
2023-05-05T11:59:49.613Z,5.43
2023-05-05T12:02:18.560Z,11.32
2023-05-05T12:04:47.143Z,6.25
2023-05-05T12:07:16.244Z,7.57
2023-05-05T12:09:45.781Z,7.97
2023-05-05T12:12:14.035Z,6.65
2023-05-05T12:14:54.280Z,7.60
2023-05-05T12:17:23.499Z,6.13
2023-05-05T12:19:53.655Z,7.25
2023-05-05T12:22:24.575Z,6.68
2023-05-05T12:24:59.672Z,3.58
2023-05-05T12:27:28.638Z,7.18
2023-05-05T12:29:57.620Z,7.40
2023-05-05T12:32:28.198Z,7.93
2023-05-05T12:34:57.547Z,5.85
2023-05-05T12:37:27.044Z,7.10
2023-05-05T12:39:57.342Z,10.27
2023-05-05T12:42:25.281Z,3.58
2023-05-05T12:44:53.203Z,5.13
2023-05-05T12:47:32.040Z,5.18
2023-05-05T12:50:00.588Z,8.43
2023-05-05T12:52:43.059Z,8.52
2023-05-05T12:55:11.489Z,5.82
2023-05-05T12:57:58.027Z,10.80
2023-05-05T13:00:26.220Z,10.52
2023-05-05T13:02:54.082Z,8.50
2023-05-05T13:05:41.295Z,10.05
2023-05-05T13:08:08.979Z,8.60
2023-05-05T13:10:37.240Z,8.32
2023-05-05T13:13:05.045Z,8.68
2023-05-05T13:15:33.785Z,7.63
2023-05-05T13:18:02.707Z,8.68
2023-05-05T13:20:30.775Z,5.78
2023-05-05T13:22:58.328Z,7.13
2023-05-05T13:25:26.119Z,8.98
2023-05-05T13:27:53.717Z,6.22
2023-05-05T13:30:21.535Z,7.00
2023-05-05T13:32:49.273Z,11.55
2023-05-05T13:35:17.270Z,10.48
2023-05-05T13:37:46.658Z,11.43
2023-05-05T13:40:14.472Z,6.60
2023-05-05T13:42:41.938Z,8.35
2023-05-05T13:45:10.143Z,9.80
2023-05-05T13:47:37.999Z,10.68
2023-05-05T13:50:06.243Z,9.90
2023-05-05T13:52:33.824Z,7.97
2023-05-05T13:55:01.392Z,5.57
2023-05-05T13:57:29.217Z,5.47
2023-05-05T13:59:57.168Z,7.55
2023-05-05T14:02:24.881Z,9.55
2023-05-05T14:04:52.645Z,9.55
2023-05-05T14:07:20.289Z,6.60
2023-05-05T14:09:47.931Z,7.47
2023-05-05T14:12:15.567Z,7.20
2023-05-05T14:14:42.944Z,8.50
2023-05-05T14:17:10.607Z,6.25
2023-05-05T14:19:38.072Z,10.65
2023-05-05T14:22:05.685Z,9.07
2023-05-05T14:24:33.082Z,9.55
2023-05-05T14:27:00.582Z,10.10
2023-05-05T14:29:28.006Z,7.75
2023-05-05T14:31:55.577Z,8.90
2023-05-05T14:34:23.212Z,11.23
2023-05-05T14:36:50.792Z,14.15
2023-05-05T14:39:18.282Z,12.60
2023-05-05T14:41:46.508Z,9.55
2023-05-05T14:44:13.978Z,10.63
2023-05-05T14:46:42.555Z,9.05
2023-05-05T14:49:11.098Z,11.73
2023-05-05T14:51:39.156Z,6.90
2023-05-05T14:54:14.340Z,15.57
2023-05-05T14:56:49.053Z,8.80
2023-05-05T14:59:16.551Z,12.85
2023-05-05T15:01:44.151Z,7.65
2023-05-05T15:04:11.691Z,8.13
2023-05-05T15:06:39.128Z,11.15
2023-05-05T15:09:06.724Z,11.32
2023-05-05T15:11:34.203Z,9.95
2023-05-05T15:14:02.074Z,7.38
2023-05-05T15:16:33.771Z,7.35
2023-05-05T15:19:02.522Z,8.10
2023-05-05T15:21:30.080Z,6.93
2023-05-05T15:23:57.447Z,8.25
2023-05-05T15:26:24.891Z,10.63
2023-05-05T15:28:52.769Z,11.60
2023-05-05T15:31:20.309Z,11.40
2023-05-05T15:33:49.505Z,7.88
2023-05-05T15:36:22.360Z,7.55
2023-05-05T15:38:50.006Z,11.75
2023-05-05T15:41:17.737Z,9.40
2023-05-05T15:43:45.393Z,8.43
2023-05-05T15:46:13.027Z,13.30
2023-05-05T15:48:40.589Z,7.28
2023-05-05T15:51:08.106Z,7.47
2023-05-05T15:53:36.104Z,3.92
2023-05-05T15:56:03.808Z,13.55
2023-05-05T15:58:31.450Z,10.07
2023-05-05T16:00:59.054Z,12.75
2023-05-05T16:03:26.787Z,12.30
2023-05-05T16:05:54.326Z,14.73
2023-05-05T16:08:21.840Z,12.40
2023-05-05T16:10:49.453Z,11.18
2023-05-05T16:13:17.111Z,11.25
2023-05-05T16:15:44.836Z,11.13
2023-05-05T16:18:12.430Z,8.90
2023-05-05T16:20:39.890Z,11.98
2023-05-05T16:23:08.029Z,12.02
2023-05-05T16:25:35.780Z,10.23
2023-05-05T16:28:06.673Z,11.57
2023-05-05T16:30:34.395Z,12.63
2023-05-05T16:33:02.010Z,11.52
2023-05-05T16:35:29.625Z,10.95
2023-05-05T16:37:57.506Z,11.05
2023-05-05T16:40:24.988Z,11.32
2023-05-05T16:42:52.510Z,10.80
2023-05-05T16:45:20.229Z,14.90
2023-05-05T16:47:47.851Z,8.80
2023-05-05T16:50:17.301Z,10.98
2023-05-05T16:52:44.851Z,14.07
2023-05-05T16:55:12.497Z,12.77
2023-05-05T16:57:40.105Z,28.77
2023-05-05T17:00:09.283Z,13.80
2023-05-05T17:02:36.734Z,17.42
2023-05-05T17:05:04.723Z,17.70
2023-05-05T17:07:32.653Z,15.30
2023-05-05T17:10:00.274Z,20.95
2023-05-05T17:12:27.712Z,15.43
2023-05-05T17:14:56.398Z,18.42
2023-05-05T17:17:23.842Z,13.18
2023-05-05T17:19:51.480Z,14.32
2023-05-05T17:22:19.141Z,10.70
2023-05-05T17:24:46.717Z,9.85
2023-05-05T17:27:14.192Z,12.13
2023-05-05T17:29:41.727Z,15.60
2023-05-05T17:32:09.540Z,12.10
2023-05-05T17:34:37.257Z,10.90
2023-05-05T17:37:04.824Z,13.00
2023-05-05T17:39:32.896Z,10.38
2023-05-05T17:42:00.486Z,11.20
2023-05-05T17:44:27.998Z,21.10
2023-05-05T17:46:55.525Z,24.60
2023-05-05T17:49:25.319Z,15.40
2023-05-05T17:51:52.918Z,15.57
2023-05-05T17:54:21.159Z,18.70
2023-05-05T17:56:48.650Z,15.10
2023-05-05T17:59:16.128Z,16.52
2023-05-05T18:01:43.621Z,22.65
2023-05-05T18:04:11.071Z,18.70
2023-05-05T18:06:38.472Z,18.60
2023-05-05T18:09:05.834Z,25.65
2023-05-05T18:11:34.140Z,24.05
2023-05-05T18:14:01.581Z,21.00
2023-05-05T18:16:28.974Z,19.98
2023-05-05T18:18:56.392Z,32.40
2023-05-05T18:21:24.041Z,22.23
2023-05-05T18:23:57.283Z,21.88
2023-05-05T18:26:29.472Z,19.10
2023-05-05T18:28:57.521Z,23.33
2023-05-05T18:31:26.155Z,21.45
2023-05-05T18:33:53.795Z,19.60
2023-05-05T18:36:21.962Z,14.95
2023-05-05T18:38:50.090Z,17.75
2023-05-05T18:41:17.870Z,17.83
2023-05-05T18:43:45.474Z,16.23
2023-05-05T18:46:13.047Z,16.10
2023-05-05T18:48:40.563Z,15.82
2023-05-05T18:51:08.255Z,17.38
2023-05-05T18:53:35.900Z,22.45
2023-05-05T18:56:03.481Z,26.50
2023-05-05T18:58:30.914Z,19.23
2023-05-05T19:00:58.450Z,23.45
2023-05-05T19:03:26.088Z,24.38
2023-05-05T19:05:54.269Z,22.17
2023-05-05T19:08:22.486Z,22.75
2023-05-05T19:10:49.876Z,24.98
2023-05-05T19:13:18.027Z,24.40
2023-05-05T19:15:46.471Z,26.20
2023-05-05T19:18:13.966Z,19.70
2023-05-05T19:20:43.423Z,20.92
2023-05-05T19:23:11.676Z,27.20
2023-05-05T19:25:39.844Z,24.98
2023-05-05T19:28:07.255Z,20.38
2023-05-05T19:30:34.960Z,22.35
2023-05-05T19:33:02.484Z,19.15
2023-05-05T19:35:31.316Z,25.35
2023-05-05T19:37:58.880Z,26.40
2023-05-05T19:40:26.395Z,23.20
2023-05-05T19:42:54.058Z,15.63
2023-05-05T19:45:21.714Z,19.65
2023-05-05T19:47:49.264Z,17.83
2023-05-05T19:50:16.846Z,20.98
2023-05-05T19:52:44.308Z,21.75
2023-05-05T19:55:13.677Z,17.90
2023-05-05T19:57:41.748Z,23.45
2023-05-05T20:00:10.870Z,21.33
2023-05-05T20:02:39.102Z,19.45
2023-05-05T20:05:07.354Z,21.38
2023-05-05T20:07:34.853Z,21.80
2023-05-05T20:10:03.277Z,21.35
2023-05-05T20:12:30.884Z,22.63
2023-05-05T20:14:58.353Z,20.67
2023-05-05T20:17:26.728Z,24.77
2023-05-05T20:19:54.334Z,17.75
2023-05-05T20:22:22.031Z,23.60
2023-05-05T20:24:49.412Z,30.27
2023-05-05T20:27:16.919Z,22.60
2023-05-05T20:29:44.831Z,20.48
2023-05-05T20:32:12.377Z,23.67
2023-05-05T20:34:40.057Z,26.55
2023-05-05T20:37:07.576Z,17.45
2023-05-05T20:39:35.072Z,21.00
2023-05-05T20:42:02.709Z,19.38
2023-05-05T20:44:30.190Z,18.48
2023-05-05T20:46:57.788Z,16.80
2023-05-05T20:49:25.297Z,24.30
2023-05-05T20:51:52.794Z,22.65
2023-05-05T20:54:20.210Z,21.27
2023-05-05T20:56:47.634Z,17.35
2023-05-05T20:59:15.097Z,16.33
2023-05-05T21:01:42.800Z,18.00
2023-05-05T21:04:11.099Z,18.80
2023-05-05T21:06:38.563Z,21.27
2023-05-05T21:09:06.670Z,17.13
2023-05-05T21:11:34.183Z,17.58
2023-05-05T21:14:01.680Z,18.92
2023-05-05T21:16:29.949Z,21.75
2023-05-05T21:19:00.516Z,21.23
2023-05-05T21:21:28.135Z,21.77
2023-05-05T21:23:56.032Z,25.63
2023-05-05T21:26:26.815Z,24.67
2023-05-05T21:28:54.455Z,22.75
2023-05-05T21:31:22.797Z,17.60
2023-05-05T21:33:50.331Z,23.77
2023-05-05T21:36:19.169Z,19.42
2023-05-05T21:38:47.224Z,19.30
2023-05-05T21:41:14.936Z,25.38
2023-05-05T21:43:42.554Z,22.77
2023-05-05T21:46:10.072Z,20.95
2023-05-05T21:48:39.018Z,21.10
2023-05-05T21:51:07.914Z,28.42
2023-05-05T21:53:35.791Z,19.23
2023-05-05T21:56:05.496Z,19.30
2023-05-05T21:58:32.960Z,14.70
2023-05-05T22:01:01.195Z,17.98
2023-05-05T22:03:28.754Z,19.83
2023-05-05T22:05:56.288Z,20.52
2023-05-05T22:08:24.050Z,24.70
2023-05-05T22:10:52.300Z,19.10
2023-05-05T22:13:19.810Z,20.38
2023-05-05T22:15:47.751Z,22.05
2023-05-05T22:18:15.771Z,17.40
2023-05-05T22:20:43.927Z,23.27
2023-05-05T22:23:11.929Z,15.95
2023-05-05T22:25:39.473Z,20.63
2023-05-05T22:28:06.956Z,23.35
2023-05-05T22:30:34.484Z,18.15
2023-05-05T22:33:02.062Z,19.02
2023-05-05T22:35:30.111Z,22.67
2023-05-05T22:37:58.150Z,17.05
2023-05-05T22:40:25.883Z,20.98
2023-05-05T22:42:53.583Z,17.58
2023-05-05T22:45:22.783Z,22.00
2023-05-05T22:47:50.457Z,20.48
2023-05-05T22:50:18.277Z,22.98
2023-05-05T22:52:45.884Z,19.75
2023-05-05T22:55:14.649Z,24.00
2023-05-05T22:57:42.481Z,24.92
2023-05-05T23:00:10.683Z,23.20
2023-05-05T23:02:38.708Z,21.65
2023-05-05T23:05:06.695Z,24.23
2023-05-05T23:07:34.230Z,21.17
2023-05-05T23:10:02.136Z,20.80
2023-05-05T23:12:29.929Z,22.05
2023-05-05T23:14:57.454Z,20.88
2023-05-05T23:17:25.066Z,20.25
2023-05-05T23:19:52.573Z,17.08
2023-05-05T23:22:19.999Z,25.30
2023-05-05T23:24:47.400Z,18.92
2023-05-05T23:27:15.103Z,18.63
2023-05-05T23:29:42.691Z,18.67
2023-05-05T23:32:10.289Z,21.55
2023-05-05T23:34:37.949Z,23.67
2023-05-05T23:37:06.386Z,18.05
2023-05-05T23:39:34.718Z,18.00
2023-05-05T23:42:02.790Z,23.70
2023-05-05T23:44:30.333Z,19.38
2023-05-05T23:46:57.828Z,13.82
2023-05-05T23:49:26.432Z,17.55
2023-05-05T23:51:53.983Z,18.15
2023-05-05T23:54:21.389Z,18.27
2023-05-05T23:56:49.281Z,18.67
2023-05-05T23:59:17.882Z,14.30
